Terminal Aerodrome Forecast
Issued by NWS

Home | Current Version | Previous Version | Text Only | Print | Product List | Glossary On
Versions: 1 2 3 4 5 6 7 8 9 10 11 12 13 14 15 16 17 18 19 20 21 22 23 24 25 26 27 28 29 30 31 32 33 34 35 36 37 38 39 40 41 42 43 44
708
FTUS41 KBTV 061133
TAFSLK
TAF
KSLK 061133Z 0612/0712 20004KT 1 1/2SM -SN BR OVC023
     FM061500 VRB03KT 1SM -SN BR OVC018
     FM062000 VRB03KT 2SM -SN BR SCT009 OVC015
     FM062200 VRB03KT 3SM -SN BR OVC018
     FM070100 VRB02KT P6SM VCSH OVC015=

USA.gov is the U.S. government's official web portal to all federal, state and local government web resources and services.